Terminal Aerodrome Forecast
Issued by NWS

Home | Current Version | Previous Version | Text Only | Print | Product List | Glossary On
Versions: 1 2 3 4 5 6 7 8 9 10 11 12 13
000
FTUS44 KTSA 261720
TAFBVO
TAF
KBVO 261720Z 2618/2718 22006KT P6SM SCT050 BKN250
     FM270000 00000KT P6SM SCT080 BKN250
     FM271400 11005KT P6SM SCT250=

USA.gov is the U.S. government's official web portal to all federal, state and local government web resources and services.